createdAt,value
2022-10-11T00:03:05.969Z,12.19
2022-10-11T00:08:08.589Z,12.22
2022-10-11T00:13:11.016Z,12.01
2022-10-11T00:18:13.359Z,11.87
2022-10-11T00:23:16.249Z,11.91
2022-10-11T00:28:18.674Z,11.96
2022-10-11T00:33:21.203Z,11.92
2022-10-11T00:38:23.730Z,11.93
2022-10-11T00:43:28.336Z,11.84
2022-10-11T00:48:38.779Z,11.79
2022-10-11T00:53:41.871Z,11.67
2022-10-11T00:58:44.464Z,11.66
2022-10-11T01:03:47.012Z,11.49
2022-10-11T01:08:50.873Z,11.51
2022-10-11T01:14:01.990Z,11.54
2022-10-11T01:19:19.299Z,11.41
2022-10-11T01:24:33.508Z,11.44
2022-10-11T01:30:00.228Z,11.35
2022-10-11T01:35:08.143Z,11.30
2022-10-11T01:40:14.736Z,11.18
2022-10-11T01:45:19.531Z,11.10
2022-10-11T01:50:45.626Z,11.28
2022-10-11T01:56:02.399Z,11.54
2022-10-11T02:01:37.331Z,11.29
2022-10-11T02:06:51.615Z,11.39
2022-10-11T02:11:57.555Z,11.67
2022-10-11T02:17:04.599Z,11.98
2022-10-11T02:22:11.127Z,12.11
2022-10-11T02:27:14.307Z,11.95
2022-10-11T02:32:18.273Z,12.16
2022-10-11T02:37:28.312Z,12.22
2022-10-11T02:42:44.501Z,12.23
2022-10-11T02:47:47.626Z,12.32
2022-10-11T02:52:50.073Z,12.21
2022-10-11T02:57:52.372Z,12.38
2022-10-11T03:02:54.771Z,12.28
2022-10-11T03:07:57.243Z,12.35
2022-10-11T03:12:59.576Z,12.48
2022-10-11T03:18:01.877Z,12.26
2022-10-11T03:23:04.274Z,12.15
2022-10-11T03:28:06.878Z,12.07
2022-10-11T03:33:09.266Z,12.05
2022-10-11T03:38:17.233Z,12.03
2022-10-11T03:43:19.737Z,12.03
2022-10-11T03:48:22.187Z,11.84
2022-10-11T03:53:24.831Z,11.63
2022-10-11T03:58:27.242Z,11.26
2022-10-11T04:03:30.019Z,11.20
2022-10-11T04:08:32.379Z,11.05
2022-10-11T04:13:34.733Z,11.08
2022-10-11T04:18:37.231Z,11.03
2022-10-11T04:23:39.537Z,11.01
2022-10-11T04:28:41.913Z,11.26
2022-10-11T04:33:44.400Z,11.44
2022-10-11T04:38:46.783Z,11.38
2022-10-11T04:43:49.120Z,11.07
2022-10-11T04:48:51.621Z,10.94
2022-10-11T04:53:54.012Z,10.94
2022-10-11T04:58:56.371Z,10.79
2022-10-11T05:03:58.763Z,10.61
2022-10-11T05:09:01.114Z,10.62
2022-10-11T05:14:03.639Z,10.62
2022-10-11T05:19:06.112Z,10.74
2022-10-11T05:24:08.587Z,10.66
2022-10-11T05:29:10.880Z,10.32
2022-10-11T05:34:13.263Z,10.44
2022-10-11T05:39:15.960Z,10.49
2022-10-11T05:44:18.558Z,10.62
2022-10-11T05:49:20.908Z,10.62
2022-10-11T05:54:23.524Z,10.65
2022-10-11T05:59:25.848Z,10.59
2022-10-11T06:04:28.191Z,10.82
2022-10-11T06:09:31.359Z,10.90
2022-10-11T06:14:33.677Z,11.33
2022-10-11T06:19:36.066Z,11.35
2022-10-11T06:24:38.449Z,11.38
2022-10-11T06:29:40.851Z,11.51
2022-10-11T06:34:43.214Z,12.04
2022-10-11T06:39:45.537Z,12.13
2022-10-11T06:44:47.921Z,12.10
2022-10-11T06:49:50.358Z,12.51
2022-10-11T06:54:52.757Z,12.30
2022-10-11T06:59:55.118Z,12.46
2022-10-11T07:04:57.636Z,12.58
2022-10-11T07:10:00.111Z,12.85
2022-10-11T07:15:02.662Z,12.96
2022-10-11T07:20:06.791Z,13.05
2022-10-11T07:25:09.486Z,12.97
2022-10-11T07:30:12.241Z,13.15
2022-10-11T07:35:14.772Z,13.10
2022-10-11T07:40:17.124Z,13.38
2022-10-11T07:45:19.449Z,13.05
2022-10-11T07:50:21.833Z,13.18
2022-10-11T07:55:24.288Z,13.41
2022-10-11T08:00:26.939Z,13.35
2022-10-11T08:05:29.337Z,13.62
2022-10-11T08:10:38.394Z,13.58
2022-10-11T08:15:40.927Z,13.64
2022-10-11T08:20:43.377Z,13.79
2022-10-11T08:25:47.750Z,13.80
2022-10-11T08:30:51.759Z,14.24
2022-10-11T08:35:55.515Z,14.20
2022-10-11T08:40:59.822Z,14.22
2022-10-11T08:46:04.778Z,14.26
2022-10-11T08:51:14.788Z,14.73
2022-10-11T08:56:17.605Z,14.82
2022-10-11T09:01:23.740Z,14.94
2022-10-11T09:06:45.335Z,14.95
2022-10-11T09:12:12.028Z,15.11
2022-10-11T09:17:46.121Z,14.97
2022-10-11T09:23:09.436Z,15.23
2022-10-11T09:28:20.957Z,15.64
2022-10-11T09:33:29.558Z,15.81
2022-10-11T09:38:56.470Z,16.00
2022-10-11T09:43:58.813Z,15.69
2022-10-11T09:49:08.693Z,15.78
2022-10-11T09:54:11.165Z,16.05
2022-10-11T09:59:33.189Z,16.21
2022-10-11T10:04:35.568Z,16.66
2022-10-11T10:09:38.109Z,17.06
2022-10-11T10:14:41.769Z,16.90
2022-10-11T10:19:53.954Z,16.93
2022-10-11T10:24:57.002Z,16.49
2022-10-11T10:30:08.274Z,16.20
2022-10-11T10:35:34.774Z,16.06
2022-10-11T10:40:48.279Z,15.89
2022-10-11T10:46:00.651Z,15.91
2022-10-11T10:51:14.715Z,15.51
2022-10-11T10:56:24.882Z,15.45
2022-10-11T11:01:32.427Z,15.50
2022-10-11T11:06:46.873Z,15.69
2022-10-11T11:12:26.493Z,15.96
2022-10-11T11:17:56.070Z,15.98
2022-10-11T11:23:16.556Z,16.48
2022-10-11T11:28:56.301Z,16.28
2022-10-11T11:34:30.278Z,15.70
2022-10-11T11:39:43.563Z,15.31
2022-10-11T11:44:48.273Z,15.26
2022-10-11T11:49:57.607Z,15.09
2022-10-11T11:55:06.092Z,15.67
2022-10-11T12:00:16.702Z,16.54
2022-10-11T12:05:23.814Z,17.09
2022-10-11T12:10:38.838Z,17.94
2022-10-11T12:15:55.863Z,18.21
2022-10-11T12:21:21.983Z,17.75
2022-10-11T12:26:30.558Z,17.74
2022-10-11T12:31:35.749Z,17.33
2022-10-11T12:36:38.084Z,17.11
2022-10-11T12:41:55.563Z,17.43
2022-10-11T12:46:58.038Z,17.83
2022-10-11T12:52:21.891Z,17.99
2022-10-11T12:57:46.603Z,18.08
2022-10-11T13:02:49.798Z,17.89
2022-10-11T13:07:56.357Z,18.02
2022-10-11T13:13:04.352Z,18.44
2022-10-11T13:18:06.785Z,17.81
2022-10-11T13:23:26.742Z,18.07
2022-10-11T13:28:34.132Z,17.60
2022-10-11T13:33:41.234Z,17.37
2022-10-11T13:39:00.299Z,17.28
2022-10-11T13:44:04.085Z,17.01
2022-10-11T13:49:27.091Z,17.03
2022-10-11T13:55:01.991Z,17.43
2022-10-11T14:00:34.786Z,17.77
2022-10-11T14:05:40.118Z,18.17
2022-10-11T14:10:47.269Z,18.07
2022-10-11T14:16:09.664Z,18.06
2022-10-11T14:21:47.183Z,17.92
2022-10-11T14:26:52.214Z,17.89
2022-10-11T14:32:01.757Z,17.41
2022-10-11T14:37:04.372Z,17.22
2022-10-11T14:42:06.867Z,16.89
2022-10-11T14:47:15.647Z,16.61
2022-10-11T14:52:17.970Z,16.82
2022-10-11T14:57:20.359Z,16.56
2022-10-11T15:02:22.715Z,16.58
2022-10-11T15:07:25.034Z,16.48
2022-10-11T15:12:27.391Z,16.86
2022-10-11T15:17:29.765Z,16.19
2022-10-11T15:22:32.087Z,15.78
2022-10-11T15:27:34.412Z,15.60
2022-10-11T15:32:36.701Z,15.14
2022-10-11T15:37:39.423Z,14.71
2022-10-11T15:42:42.181Z,14.37
2022-10-11T15:47:45.243Z,13.91
2022-10-11T15:52:47.635Z,13.76
2022-10-11T15:57:50.311Z,13.21
2022-10-11T16:02:53.388Z,12.85
2022-10-11T16:07:56.041Z,12.39
2022-10-11T16:12:59.067Z,12.20
2022-10-11T16:18:02.452Z,11.67
2022-10-11T16:23:05.355Z,11.56
2022-10-11T16:28:08.657Z,11.14
2022-10-11T16:33:11.114Z,10.69
2022-10-11T16:38:13.663Z,10.24
2022-10-11T16:43:16.041Z,10.29
2022-10-11T16:48:18.327Z,10.37
2022-10-11T16:53:21.862Z,10.32
2022-10-11T16:58:24.651Z,10.37
2022-10-11T17:03:27.094Z,10.54
2022-10-11T17:08:29.896Z,10.48
2022-10-11T17:13:32.361Z,10.44
2022-10-11T17:18:34.692Z,10.38
2022-10-11T17:23:37.758Z,10.26
2022-10-11T17:28:40.140Z,10.02
2022-10-11T17:33:42.525Z,9.95
2022-10-11T17:38:45.107Z,9.81
2022-10-11T17:43:48.171Z,9.82
2022-10-11T17:48:55.059Z,9.73
2022-10-11T17:53:57.747Z,9.71
2022-10-11T17:59:00.460Z,9.85
2022-10-11T18:04:06.058Z,9.86
2022-10-11T18:09:08.506Z,9.71
2022-10-11T18:14:11.512Z,9.54
2022-10-11T18:19:14.572Z,9.50
2022-10-11T18:24:17.262Z,9.44
2022-10-11T18:29:19.632Z,9.53
2022-10-11T18:34:21.940Z,9.50
2022-10-11T18:39:24.353Z,9.49
2022-10-11T18:44:26.607Z,9.21
2022-10-11T18:49:29.093Z,9.12
2022-10-11T18:54:31.507Z,9.22
2022-10-11T18:59:34.025Z,9.18
2022-10-11T19:04:36.371Z,9.13
2022-10-11T19:09:38.790Z,9.13
2022-10-11T19:14:41.529Z,9.12
2022-10-11T19:19:43.957Z,9.07
2022-10-11T19:24:46.292Z,9.03
2022-10-11T19:29:48.710Z,8.96
2022-10-11T19:34:51.229Z,8.91
2022-10-11T19:39:53.664Z,8.85
2022-10-11T19:44:56.072Z,8.97
2022-10-11T19:49:58.380Z,8.91
2022-10-11T19:55:00.741Z,8.89
2022-10-11T20:00:03.137Z,8.91
2022-10-11T20:05:07.174Z,8.82
2022-10-11T20:10:09.633Z,8.80
2022-10-11T20:15:12.156Z,8.57
2022-10-11T20:20:15.530Z,8.54
2022-10-11T20:25:17.838Z,8.63
2022-10-11T20:30:20.270Z,8.69
2022-10-11T20:35:22.528Z,8.73
2022-10-11T20:40:24.867Z,8.59
2022-10-11T20:45:27.206Z,8.52
2022-10-11T20:50:29.489Z,8.48
2022-10-11T20:55:31.756Z,8.47
2022-10-11T21:00:34.092Z,8.47
2022-10-11T21:05:36.534Z,8.56
2022-10-11T21:10:39.145Z,8.57
2022-10-11T21:15:41.886Z,8.50
2022-10-11T21:20:45.119Z,8.47
2022-10-11T21:25:47.437Z,8.36
2022-10-11T21:30:50.063Z,8.24
2022-10-11T21:35:52.439Z,8.14
2022-10-11T21:40:54.885Z,8.13
2022-10-11T21:45:57.321Z,8.19
2022-10-11T21:50:59.678Z,8.24
2022-10-11T21:56:02.281Z,8.34
2022-10-11T22:01:05.200Z,8.48
2022-10-11T22:06:07.629Z,8.65
2022-10-11T22:11:10.287Z,8.65
2022-10-11T22:16:13.637Z,8.61
2022-10-11T22:21:21.258Z,8.60
2022-10-11T22:26:26.606Z,8.62
2022-10-11T22:31:29.596Z,8.58
2022-10-11T22:36:33.656Z,8.79
2022-10-11T22:41:36.522Z,9.06
2022-10-11T22:46:38.756Z,9.30
2022-10-11T22:51:40.989Z,9.39
2022-10-11T22:56:43.285Z,9.23
2022-10-11T23:01:45.632Z,9.24
2022-10-11T23:06:47.970Z,9.32
2022-10-11T23:11:50.217Z,9.34
2022-10-11T23:16:52.549Z,9.46
2022-10-11T23:21:54.928Z,9.49
2022-10-11T23:26:57.186Z,9.47
2022-10-11T23:31:59.502Z,9.50
2022-10-11T23:37:02.486Z,9.26
2022-10-11T23:42:05.007Z,9.36
2022-10-11T23:47:07.279Z,9.12
2022-10-11T23:52:09.608Z,9.12
2022-10-11T23:57:12.554Z,9.07
